createdAt,value
2022-12-26T00:00:03.936Z,.32
2022-12-26T00:00:34.498Z,.32
2022-12-26T00:01:06.630Z,.32
2022-12-26T00:01:34.408Z,.32
2022-12-26T00:01:54.157Z,.32
2022-12-26T00:02:26.213Z,.32
2022-12-26T00:02:58.240Z,.48
2022-12-26T00:03:30.313Z,.64
2022-12-26T00:04:03.001Z,.88
2022-12-26T00:04:49.525Z,.88
2022-12-26T00:05:07.008Z,.88
2022-12-26T00:05:34.360Z,.88
2022-12-26T00:05:54.357Z,.88
2022-12-26T00:06:26.118Z,1.28
2022-12-26T00:06:58.122Z,1.61
2022-12-26T00:07:30.146Z,1.45
2022-12-26T00:08:02.156Z,1.45
2022-12-26T00:08:34.414Z,1.45
2022-12-26T00:09:06.582Z,1.45
2022-12-26T00:09:35.421Z,1.12
2022-12-26T00:09:54.110Z,.72
2022-12-26T00:10:27.242Z,.72
2022-12-26T00:10:43.480Z,.32
2022-12-26T00:11:14.131Z,.32
2022-12-26T00:11:36.344Z,.32
2022-12-26T00:12:02.193Z,.32
2022-12-26T00:12:34.120Z,.32
2022-12-26T00:13:38.752Z,.32
2022-12-26T00:13:39.426Z,.32
2022-12-26T00:13:54.131Z,.16
2022-12-26T00:14:26.120Z,.32
2022-12-26T00:14:43.266Z,.32
2022-12-26T00:15:14.731Z,.32
2022-12-26T00:15:36.373Z,.32
2022-12-26T00:16:03.323Z,.32
2022-12-26T00:16:34.566Z,.32
2022-12-26T00:17:06.612Z,.32
2022-12-26T00:17:35.376Z,.32
2022-12-26T00:17:54.188Z,.32
2022-12-26T00:18:26.130Z,.32
2022-12-26T00:18:43.296Z,.32
2022-12-26T00:19:14.087Z,.32
2022-12-26T00:19:36.591Z,.32
2022-12-26T00:20:03.629Z,.32
2022-12-26T00:20:34.201Z,.16
2022-12-26T00:21:06.625Z,.16
2022-12-26T00:21:35.361Z,.16
2022-12-26T00:21:54.128Z,.16
2022-12-26T00:22:26.124Z,0
2022-12-26T00:22:43.255Z,0
2022-12-26T00:23:14.987Z,0
2022-12-26T00:23:36.351Z,0
2022-12-26T00:24:02.162Z,0
2022-12-26T00:24:34.184Z,0
2022-12-26T00:25:06.964Z,0
2022-12-26T00:25:35.358Z,0
2022-12-26T00:25:54.368Z,0
2022-12-26T00:26:26.905Z,0
2022-12-26T00:26:43.448Z,0
2022-12-26T00:27:14.080Z,0
2022-12-26T00:27:36.355Z,.16
2022-12-26T00:28:02.177Z,.16
2022-12-26T00:28:34.085Z,.16
2022-12-26T00:29:06.612Z,.16
2022-12-26T00:29:37.449Z,.32
2022-12-26T00:29:53.987Z,.32
2022-12-26T00:30:26.799Z,.32
2022-12-26T00:30:43.298Z,.32
2022-12-26T00:31:14.180Z,.32
2022-12-26T00:31:36.383Z,.32
2022-12-26T00:32:02.253Z,.32
2022-12-26T00:32:34.063Z,.32
2022-12-26T00:33:06.648Z,.32
2022-12-26T00:33:35.374Z,.32
2022-12-26T00:33:54.169Z,.48
2022-12-26T00:34:26.123Z,.48
2022-12-26T00:34:43.285Z,.48
2022-12-26T00:35:14.432Z,.48
2022-12-26T00:35:36.351Z,.48
2022-12-26T00:36:03.136Z,.48
2022-12-26T00:36:34.094Z,.48
2022-12-26T00:37:06.599Z,.48
2022-12-26T00:37:43.830Z,.48
2022-12-26T00:38:10.108Z,.64
2022-12-26T00:38:35.456Z,.88
2022-12-26T00:38:58.128Z,.88
2022-12-26T00:39:30.138Z,.88
2022-12-26T00:40:03.453Z,.88
2022-12-26T00:40:34.383Z,.88
2022-12-26T00:41:06.610Z,1.28
2022-12-26T00:41:38.085Z,.88
2022-12-26T00:42:10.104Z,1.28
2022-12-26T00:42:35.334Z,1.44
2022-12-26T00:42:58.159Z,1.44
2022-12-26T00:43:30.192Z,1.44
2022-12-26T00:44:02.168Z,1.28
2022-12-26T00:44:34.131Z,1.28
2022-12-26T00:45:07.250Z,.88
2022-12-26T00:45:37.287Z,.88
2022-12-26T00:45:54.511Z,.88
2022-12-26T00:46:26.177Z,.48
2022-12-26T00:46:43.338Z,.48
2022-12-26T00:47:14.253Z,.48
2022-12-26T00:47:36.342Z,.32
2022-12-26T00:48:02.140Z,.32
2022-12-26T00:48:34.092Z,.32
2022-12-26T00:49:06.593Z,.16
2022-12-26T00:50:13.155Z,0
2022-12-26T00:50:13.406Z,0
2022-12-26T00:50:31.170Z,0
2022-12-26T00:50:43.309Z,0
2022-12-26T00:51:14.575Z,0
2022-12-26T00:51:36.389Z,0
2022-12-26T00:52:03.103Z,0
2022-12-26T00:52:34.121Z,0
2022-12-26T00:53:06.614Z,0
2022-12-26T00:53:38.112Z,0
2022-12-26T00:54:10.103Z,0
2022-12-26T00:54:36.098Z,0
2022-12-26T00:54:58.093Z,0
2022-12-26T00:55:30.564Z,0
2022-12-26T00:56:02.126Z,0
2022-12-26T00:56:34.473Z,0
2022-12-26T00:57:06.568Z,0
2022-12-26T00:57:36.759Z,0
2022-12-26T00:57:54.118Z,0
2022-12-26T00:58:26.962Z,0
2022-12-26T00:58:58.157Z,0
2022-12-26T00:59:30.153Z,0
2022-12-26T01:00:03.704Z,0
2022-12-26T01:00:34.134Z,0
2022-12-26T01:01:06.677Z,0
2022-12-26T01:01:36.822Z,0
2022-12-26T01:01:54.282Z,.16
2022-12-26T01:02:26.226Z,.32
2022-12-26T01:02:43.390Z,.32
2022-12-26T01:03:14.329Z,.32
2022-12-26T01:03:36.445Z,.32
2022-12-26T01:04:02.134Z,.48
2022-12-26T01:04:34.166Z,.88
2022-12-26T01:05:07.045Z,.88
2022-12-26T01:05:35.318Z,1.28
2022-12-26T01:05:54.340Z,1.44
2022-12-26T01:06:26.161Z,1.44
2022-12-26T01:06:43.289Z,1.44
2022-12-26T01:07:14.073Z,1.44
2022-12-26T01:07:36.326Z,1.44
2022-12-26T01:08:19.816Z,1.44
2022-12-26T01:08:34.121Z,1.44
2022-12-26T01:09:06.635Z,1.44
2022-12-26T01:09:38.075Z,1.28
2022-12-26T01:10:10.401Z,.88
2022-12-26T01:10:36.467Z,.88
2022-12-26T01:10:58.341Z,.88
2022-12-26T01:11:30.115Z,.88
2022-12-26T01:12:02.085Z,1.12
2022-12-26T01:12:34.095Z,1.12
2022-12-26T01:13:06.573Z,1.12
2022-12-26T01:13:38.065Z,1.12
2022-12-26T01:14:10.127Z,1.12
2022-12-26T01:14:35.331Z,1.12
2022-12-26T01:14:58.120Z,1.12
2022-12-26T01:15:30.704Z,1.12
2022-12-26T01:16:03.144Z,1.12
2022-12-26T01:16:34.639Z,1.28
2022-12-26T01:17:06.619Z,1.12
2022-12-26T01:17:36.906Z,1.12
2022-12-26T01:17:54.294Z,1.28
2022-12-26T01:18:26.091Z,1.44
2022-12-26T01:18:43.296Z,1.77
2022-12-26T01:19:14.197Z,2.09
2022-12-26T01:19:36.322Z,2.09
2022-12-26T01:20:03.440Z,2.09
2022-12-26T01:20:34.092Z,2.33
2022-12-26T01:21:06.713Z,2.73
2022-12-26T01:21:35.331Z,2.73
2022-12-26T01:21:54.095Z,3.22
2022-12-26T01:22:26.147Z,2.89
2022-12-26T01:22:43.797Z,2.73
2022-12-26T01:23:14.055Z,2.49
2022-12-26T01:23:36.318Z,2.49
2022-12-26T01:24:02.089Z,1.93
2022-12-26T01:24:34.541Z,1.77
2022-12-26T01:25:06.862Z,1.77
2022-12-26T01:25:38.081Z,1.61
2022-12-26T01:26:17.558Z,1.61
2022-12-26T01:26:35.323Z,1.61
2022-12-26T01:26:58.072Z,1.44
2022-12-26T01:27:30.086Z,1.44
2022-12-26T01:28:02.108Z,1.44
2022-12-26T01:28:34.208Z,1.44
2022-12-26T01:29:07.010Z,1.44
2022-12-26T01:29:35.685Z,1.44
2022-12-26T01:29:54.114Z,1.28
2022-12-26T01:30:26.724Z,1.12
2022-12-26T01:30:43.806Z,.72
2022-12-26T01:31:14.176Z,.72
2022-12-26T01:31:36.410Z,.32
2022-12-26T01:32:02.256Z,.32
2022-12-26T01:32:34.079Z,.32
2022-12-26T01:33:06.592Z,.32
2022-12-26T01:33:38.183Z,.32
2022-12-26T01:34:10.258Z,.32
2022-12-26T01:34:36.503Z,.48
2022-12-26T01:34:58.176Z,.48
2022-12-26T01:35:31.204Z,.88
2022-12-26T01:36:02.087Z,.88
2022-12-26T01:36:34.075Z,.48
2022-12-26T01:37:06.552Z,1.04
2022-12-26T01:37:35.327Z,1.44
2022-12-26T01:37:54.118Z,1.44
2022-12-26T01:38:26.436Z,1.61
2022-12-26T01:38:44.097Z,1.61
2022-12-26T01:39:14.092Z,1.77
2022-12-26T01:39:36.262Z,2.17
2022-12-26T01:40:03.315Z,2.33
2022-12-26T01:40:34.719Z,2.57
2022-12-26T01:41:06.868Z,2.57
2022-12-26T01:41:35.389Z,2.57
2022-12-26T01:41:58.278Z,2.57
2022-12-26T01:42:26.684Z,2.73
2022-12-26T01:42:43.322Z,2.73
2022-12-26T01:43:14.718Z,2.57
2022-12-26T01:43:36.312Z,2.57
2022-12-26T01:44:02.856Z,2.33
2022-12-26T01:44:34.496Z,2.09
2022-12-26T01:45:07.861Z,2.33
2022-12-26T01:45:35.620Z,2.33
2022-12-26T01:45:54.797Z,2.09
2022-12-26T01:46:26.359Z,2.09
2022-12-26T01:46:44.022Z,2.09
2022-12-26T01:47:14.259Z,2.09
2022-12-26T01:47:36.654Z,2.09
2022-12-26T01:48:02.295Z,2.09
2022-12-26T01:48:34.121Z,2.09
2022-12-26T01:49:06.900Z,2.09
2022-12-26T01:49:38.340Z,1.93
2022-12-26T01:50:10.424Z,1.77
2022-12-26T01:50:36.559Z,1.77
2022-12-26T01:50:58.573Z,1.77
2022-12-26T01:51:31.062Z,1.61
2022-12-26T01:52:02.088Z,1.44
2022-12-26T01:52:34.538Z,1.44
2022-12-26T01:53:06.631Z,1.28
2022-12-26T01:53:35.595Z,1.28
2022-12-26T01:53:54.113Z,1.44
2022-12-26T01:54:41.253Z,1.44
2022-12-26T01:54:43.878Z,1.44
2022-12-26T01:55:14.453Z,1.28
2022-12-26T01:55:36.693Z,1.44
2022-12-26T01:56:02.103Z,1.44
2022-12-26T01:56:34.728Z,1.44
2022-12-26T01:57:06.655Z,1.44
2022-12-26T01:57:35.377Z,1.44
2022-12-26T01:57:55.041Z,1.28
2022-12-26T01:58:26.127Z,1.44
2022-12-26T01:58:43.286Z,1.77
2022-12-26T01:59:14.122Z,1.77
2022-12-26T01:59:36.397Z,2.09
2022-12-26T02:00:04.110Z,2.09
2022-12-26T02:00:34.433Z,2.09
2022-12-26T02:01:07.237Z,2.09
2022-12-26T02:01:35.579Z,2.09
2022-12-26T02:01:54.476Z,2.09
2022-12-26T02:02:26.281Z,2.09
2022-12-26T02:02:43.360Z,2.33
2022-12-26T02:03:14.128Z,2.09
2022-12-26T02:03:36.401Z,1.77
2022-12-26T02:04:02.142Z,1.77
2022-12-26T02:04:34.094Z,1.77
2022-12-26T02:05:07.049Z,1.44
2022-12-26T02:05:35.399Z,1.44
2022-12-26T02:05:54.404Z,1.44
2022-12-26T02:06:26.166Z,1.28
2022-12-26T02:06:43.270Z,1.28
2022-12-26T02:07:14.132Z,1.28
2022-12-26T02:07:36.421Z,1.12
2022-12-26T02:08:02.154Z,1.12
2022-12-26T02:08:34.110Z,1.12
2022-12-26T02:09:06.644Z,1.12
2022-12-26T02:09:35.378Z,1.12
2022-12-26T02:09:54.160Z,1.12
2022-12-26T02:10:26.428Z,1.12
2022-12-26T02:10:44.027Z,1.12
2022-12-26T02:11:14.086Z,1.12
2022-12-26T02:11:36.447Z,.88
2022-12-26T02:12:33.914Z,.88
2022-12-26T02:12:38.446Z,.88
2022-12-26T02:13:06.615Z,.88
2022-12-26T02:13:35.361Z,.64
2022-12-26T02:13:54.925Z,.64
2022-12-26T02:14:26.137Z,.88
2022-12-26T02:14:43.281Z,.48
2022-12-26T02:15:14.736Z,.48
2022-12-26T02:15:36.391Z,.48
2022-12-26T02:16:03.350Z,.48
2022-12-26T02:16:34.145Z,.88
2022-12-26T02:17:07.124Z,.64
2022-12-26T02:17:38.119Z,.64
2022-12-26T02:18:10.110Z,.64
2022-12-26T02:18:35.378Z,1.21
2022-12-26T02:18:58.173Z,1.21
2022-12-26T02:19:30.159Z,1.21
2022-12-26T02:20:03.526Z,1.21
2022-12-26T02:20:34.217Z,1.45
2022-12-26T02:21:06.657Z,1.45
2022-12-26T02:21:35.392Z,.88
2022-12-26T02:21:54.131Z,.64
2022-12-26T02:22:26.108Z,.48
2022-12-26T02:22:43.269Z,.64
2022-12-26T02:23:14.158Z,.88
2022-12-26T02:23:36.358Z,.64
2022-12-26T02:24:02.207Z,.64
2022-12-26T02:24:34.078Z,.64
2022-12-26T02:25:06.898Z,.64
2022-12-26T02:25:35.359Z,.32
2022-12-26T02:25:54.354Z,0
2022-12-26T02:26:26.154Z,0
2022-12-26T02:26:43.291Z,0
2022-12-26T02:27:14.169Z,0
2022-12-26T02:27:36.337Z,0
2022-12-26T02:28:02.113Z,0
2022-12-26T02:28:34.107Z,0
2022-12-26T02:29:06.630Z,0
2022-12-26T02:29:35.381Z,0
2022-12-26T02:29:54.224Z,0
2022-12-26T02:30:26.627Z,0
2022-12-26T02:30:43.250Z,0
2022-12-26T02:31:14.199Z,0
2022-12-26T02:31:36.496Z,0
2022-12-26T02:32:02.187Z,0
2022-12-26T02:32:35.294Z,0
2022-12-26T02:33:06.598Z,0
2022-12-26T02:33:35.502Z,0
2022-12-26T02:33:54.104Z,0
2022-12-26T02:34:26.108Z,0
2022-12-26T02:34:43.264Z,0
2022-12-26T02:35:14.415Z,0
2022-12-26T02:35:37.122Z,0
2022-12-26T02:36:02.094Z,0
2022-12-26T02:36:34.038Z,0
2022-12-26T02:37:06.600Z,0
2022-12-26T02:37:38.082Z,0
2022-12-26T02:38:10.090Z,0
2022-12-26T02:38:35.620Z,0
2022-12-26T02:39:44.095Z,0
2022-12-26T02:39:45.388Z,0
2022-12-26T02:40:03.286Z,0
2022-12-26T02:40:34.032Z,0
2022-12-26T02:41:06.679Z,0
2022-12-26T02:41:35.317Z,0
2022-12-26T02:41:54.908Z,.16
2022-12-26T02:42:26.099Z,.32
2022-12-26T02:42:43.258Z,.72
2022-12-26T02:43:14.033Z,.72
2022-12-26T02:43:35.870Z,.72
2022-12-26T02:44:02.089Z,.72
2022-12-26T02:44:34.062Z,.72
2022-12-26T02:45:07.646Z,.72
2022-12-26T02:45:38.168Z,.88
2022-12-26T02:46:10.328Z,1.12
2022-12-26T02:46:35.335Z,1.12
2022-12-26T02:46:58.036Z,1.12
2022-12-26T02:47:30.105Z,.88
2022-12-26T02:48:02.069Z,.48
2022-12-26T02:48:34.033Z,.32
2022-12-26T02:49:06.504Z,.32
2022-12-26T02:49:35.305Z,.32
2022-12-26T02:49:54.083Z,.32
2022-12-26T02:50:26.389Z,.32
2022-12-26T02:50:43.266Z,.32
2022-12-26T02:51:14.017Z,.32
2022-12-26T02:51:35.879Z,.16
2022-12-26T02:52:02.087Z,.16
2022-12-26T02:52:34.172Z,.32
2022-12-26T02:53:06.581Z,.32
2022-12-26T02:53:38.052Z,.32
2022-12-26T02:54:10.094Z,.32
2022-12-26T02:54:37.135Z,.48
2022-12-26T02:54:58.049Z,.32
2022-12-26T02:55:30.373Z,.32
2022-12-26T02:56:02.040Z,.32
2022-12-26T02:56:37.114Z,.48
2022-12-26T02:57:06.626Z,.64
2022-12-26T02:57:35.346Z,.88
2022-12-26T02:57:54.036Z,.88
2022-12-26T02:58:26.096Z,.88
2022-12-26T02:58:43.253Z,.64
2022-12-26T02:59:14.010Z,.64
2022-12-26T02:59:56.122Z,.48
2022-12-26T03:00:03.697Z,.16
2022-12-26T03:00:34.158Z,.16
2022-12-26T03:01:07.277Z,.16
2022-12-26T03:01:35.406Z,0
2022-12-26T03:01:54.220Z,0
2022-12-26T03:02:26.208Z,0
2022-12-26T03:02:43.348Z,0
2022-12-26T03:03:14.196Z,0
2022-12-26T03:03:35.892Z,0
2022-12-26T03:04:02.045Z,0
2022-12-26T03:04:34.056Z,0
2022-12-26T03:05:06.790Z,0
2022-12-26T03:05:35.408Z,0
2022-12-26T03:05:54.303Z,0
2022-12-26T03:06:26.056Z,0
2022-12-26T03:06:43.301Z,0
2022-12-26T03:07:14.047Z,0
2022-12-26T03:07:35.908Z,0
2022-12-26T03:08:02.107Z,0
2022-12-26T03:08:34.525Z,0
2022-12-26T03:09:06.556Z,0
2022-12-26T03:09:35.326Z,0
2022-12-26T03:09:54.029Z,0
2022-12-26T03:10:26.305Z,0
2022-12-26T03:10:43.676Z,0
2022-12-26T03:11:14.063Z,0
2022-12-26T03:11:35.887Z,0
2022-12-26T03:12:02.087Z,0
2022-12-26T03:12:34.036Z,0
2022-12-26T03:13:06.488Z,0
2022-12-26T03:13:35.541Z,0
2022-12-26T03:14:00.353Z,0
2022-12-26T03:14:26.095Z,0
2022-12-26T03:14:43.304Z,0
2022-12-26T03:15:14.615Z,0
2022-12-26T03:15:35.900Z,0
2022-12-26T03:16:03.280Z,0
2022-12-26T03:16:34.095Z,0
2022-12-26T03:17:07.324Z,0
2022-12-26T03:17:35.327Z,0
2022-12-26T03:17:54.051Z,0
2022-12-26T03:18:56.831Z,0
2022-12-26T03:18:57.590Z,0
2022-12-26T03:19:14.015Z,0
2022-12-26T03:19:35.871Z,.16
2022-12-26T03:20:03.345Z,.16
2022-12-26T03:20:34.052Z,.16
2022-12-26T03:21:06.545Z,0
2022-12-26T03:21:38.129Z,0
2022-12-26T03:22:10.165Z,.16
2022-12-26T03:22:35.587Z,.16
2022-12-26T03:22:58.889Z,.32
2022-12-26T03:23:30.066Z,.32
2022-12-26T03:24:02.091Z,.32
2022-12-26T03:24:39.068Z,.32
2022-12-26T03:25:06.780Z,.16
2022-12-26T03:25:35.700Z,0
2022-12-26T03:25:54.290Z,0
2022-12-26T03:26:26.048Z,0
2022-12-26T03:26:43.217Z,0
2022-12-26T03:27:14.071Z,0
2022-12-26T03:27:35.837Z,0
2022-12-26T03:28:02.043Z,0
2022-12-26T03:28:34.018Z,0
2022-12-26T03:29:06.472Z,0
2022-12-26T03:29:35.317Z,0
2022-12-26T03:29:54.037Z,0
2022-12-26T03:30:26.773Z,0
2022-12-26T03:30:43.350Z,0
2022-12-26T03:31:14.195Z,0
2022-12-26T03:31:35.879Z,0
2022-12-26T03:32:02.078Z,0
2022-12-26T03:32:34.859Z,0
2022-12-26T03:33:06.526Z,0
2022-12-26T03:33:37.031Z,0
2022-12-26T03:33:54.083Z,0
2022-12-26T03:34:26.035Z,0
2022-12-26T03:34:43.172Z,0
2022-12-26T03:35:14.396Z,0
2022-12-26T03:35:37.026Z,0
2022-12-26T03:36:02.064Z,0
2022-12-26T03:36:34.599Z,0
2022-12-26T03:37:06.495Z,0
2022-12-26T03:37:48.493Z,0
2022-12-26T03:38:10.023Z,0
2022-12-26T03:38:35.321Z,0
2022-12-26T03:38:58.074Z,0
2022-12-26T03:39:30.119Z,0
2022-12-26T03:40:03.293Z,0
2022-12-26T03:40:34.025Z,0
2022-12-26T03:41:06.513Z,0
2022-12-26T03:41:35.959Z,0
2022-12-26T03:41:54.853Z,0
2022-12-26T03:42:26.051Z,0
2022-12-26T03:42:43.304Z,0
2022-12-26T03:43:14.158Z,0
2022-12-26T03:43:35.857Z,0
2022-12-26T03:44:02.037Z,0
2022-12-26T03:44:34.035Z,0
2022-12-26T03:45:07.737Z,0
2022-12-26T03:45:37.232Z,0
2022-12-26T03:45:54.332Z,0
2022-12-26T03:46:26.085Z,0
2022-12-26T03:46:43.205Z,0
2022-12-26T03:47:14.028Z,0
2022-12-26T03:47:35.858Z,0
2022-12-26T03:48:02.154Z,0
2022-12-26T03:48:34.043Z,0
2022-12-26T03:49:06.506Z,0
2022-12-26T03:49:35.715Z,0
2022-12-26T03:49:54.022Z,0
2022-12-26T03:50:26.325Z,0
2022-12-26T03:50:43.302Z,0
2022-12-26T03:51:14.051Z,0
2022-12-26T03:51:35.881Z,0
2022-12-26T03:52:02.044Z,0
2022-12-26T03:52:34.032Z,0
2022-12-26T03:53:06.063Z,0
2022-12-26T03:53:35.324Z,0
2022-12-26T03:53:54.089Z,0
2022-12-26T03:54:26.079Z,0
2022-12-26T03:54:43.792Z,0
2022-12-26T03:55:14.337Z,0
2022-12-26T03:55:35.836Z,0
2022-12-26T03:56:02.076Z,0
2022-12-26T03:56:34.042Z,0
2022-12-26T03:57:06.200Z,0
2022-12-26T03:57:35.324Z,0
2022-12-26T03:57:54.038Z,0
2022-12-26T03:58:26.018Z,0
2022-12-26T03:58:43.210Z,0
2022-12-26T03:59:14.209Z,0
2022-12-26T03:59:35.870Z,0
2022-12-26T04:00:03.818Z,0
2022-12-26T04:00:34.084Z,0
2022-12-26T04:01:07.407Z,0
2022-12-26T04:01:35.894Z,0
2022-12-26T04:02:07.752Z,0
2022-12-26T04:02:26.242Z,0
2022-12-26T04:02:43.215Z,0
2022-12-26T04:03:14.107Z,0
2022-12-26T04:03:35.877Z,0
2022-12-26T04:04:02.190Z,0
2022-12-26T04:04:34.054Z,0
2022-12-26T04:05:06.694Z,0
2022-12-26T04:05:35.332Z,0
2022-12-26T04:05:54.319Z,0
2022-12-26T04:06:26.030Z,0
2022-12-26T04:06:43.194Z,0
2022-12-26T04:07:14.123Z,0
2022-12-26T04:07:35.877Z,0
2022-12-26T04:08:02.061Z,0
2022-12-26T04:08:34.131Z,0
2022-12-26T04:09:06.064Z,0
2022-12-26T04:09:35.308Z,0
2022-12-26T04:09:54.063Z,0
2022-12-26T04:10:26.317Z,0
2022-12-26T04:10:43.744Z,0
2022-12-26T04:11:14.052Z,0
2022-12-26T04:11:35.819Z,0
2022-12-26T04:12:02.069Z,0
2022-12-26T04:12:34.314Z,0
2022-12-26T04:13:06.127Z,0
2022-12-26T04:13:38.162Z,0
2022-12-26T04:14:10.044Z,0
2022-12-26T04:14:35.714Z,0
2022-12-26T04:14:58.050Z,0
2022-12-26T04:15:30.693Z,0
2022-12-26T04:16:03.128Z,0
2022-12-26T04:16:34.072Z,0
2022-12-26T04:17:07.337Z,0
2022-12-26T04:17:35.345Z,0
2022-12-26T04:17:54.067Z,0
2022-12-26T04:18:26.107Z,0
2022-12-26T04:18:43.231Z,0
2022-12-26T04:19:14.025Z,0
2022-12-26T04:19:41.337Z,0
2022-12-26T04:20:03.348Z,0
2022-12-26T04:20:34.084Z,0
2022-12-26T04:21:06.088Z,0
2022-12-26T04:21:35.296Z,0
2022-12-26T04:21:54.028Z,0
2022-12-26T04:22:26.014Z,0
2022-12-26T04:22:43.239Z,0
2022-12-26T04:23:14.801Z,0
2022-12-26T04:23:35.812Z,0
2022-12-26T04:24:02.049Z,0
2022-12-26T04:24:34.038Z,0
2022-12-26T04:25:06.565Z,0
2022-12-26T04:25:48.792Z,0
2022-12-26T04:25:54.307Z,0
2022-12-26T04:26:26.866Z,.16
2022-12-26T04:26:43.427Z,0
2022-12-26T04:27:14.057Z,0
2022-12-26T04:27:35.862Z,0
2022-12-26T04:28:02.156Z,0
2022-12-26T04:28:34.052Z,0
2022-12-26T04:29:06.074Z,0
2022-12-26T04:29:41.040Z,0
2022-12-26T04:30:11.974Z,.16
2022-12-26T04:30:35.338Z,.32
2022-12-26T04:30:58.335Z,.32
2022-12-26T04:31:30.187Z,.32
2022-12-26T04:32:02.073Z,.32
2022-12-26T04:32:34.018Z,.32
2022-12-26T04:33:06.072Z,.32
2022-12-26T04:33:38.035Z,.32
2022-12-26T04:34:10.020Z,.32
2022-12-26T04:34:35.328Z,.32
2022-12-26T04:34:58.077Z,.32
2022-12-26T04:35:30.452Z,.32
2022-12-26T04:36:02.892Z,.32
2022-12-26T04:36:34.065Z,.32
2022-12-26T04:37:06.084Z,.32
2022-12-26T04:37:35.325Z,.32
2022-12-26T04:37:54.017Z,.32
2022-12-26T04:38:26.058Z,.32
2022-12-26T04:38:43.205Z,.32
2022-12-26T04:39:14.742Z,.32
2022-12-26T04:39:36.679Z,.32
2022-12-26T04:40:03.682Z,.32
2022-12-26T04:40:34.046Z,.32
2022-12-26T04:41:06.056Z,.32
2022-12-26T04:41:38.005Z,.32
2022-12-26T04:42:10.035Z,.32
2022-12-26T04:42:35.596Z,.32
2022-12-26T04:42:58.090Z,.32
2022-12-26T04:43:50.341Z,.32
2022-12-26T04:44:02.065Z,.32
2022-12-26T04:44:34.018Z,.32
2022-12-26T04:45:06.991Z,.32
2022-12-26T04:45:38.863Z,.32
2022-12-26T04:46:10.264Z,.32
2022-12-26T04:46:35.365Z,.32
2022-12-26T04:46:58.209Z,.32
2022-12-26T04:47:30.073Z,.32
2022-12-26T04:48:02.021Z,.32
2022-12-26T04:48:34.022Z,.16
2022-12-26T04:49:06.059Z,.16
2022-12-26T04:49:38.022Z,.16
2022-12-26T04:50:11.731Z,.16
2022-12-26T04:50:35.428Z,0
2022-12-26T04:50:58.310Z,0
2022-12-26T04:51:30.095Z,0
2022-12-26T04:52:02.982Z,0
2022-12-26T04:52:34.044Z,.16
2022-12-26T04:53:06.056Z,.16
2022-12-26T04:53:35.303Z,.16
2022-12-26T04:53:54.009Z,.32
2022-12-26T04:54:26.036Z,.16
2022-12-26T04:54:43.202Z,.16
2022-12-26T04:55:15.121Z,0
2022-12-26T04:55:35.845Z,0
2022-12-26T04:56:02.026Z,.16
2022-12-26T04:56:34.312Z,.16
2022-12-26T04:57:06.047Z,0
2022-12-26T04:57:35.312Z,.16
2022-12-26T04:57:54.072Z,.32
2022-12-26T04:58:26.764Z,.32
2022-12-26T04:58:43.312Z,.32
2022-12-26T04:59:14.001Z,.16
2022-12-26T04:59:35.802Z,.32
2022-12-26T05:00:03.974Z,.32
2022-12-26T05:00:34.079Z,.32
2022-12-26T05:01:06.115Z,.32
2022-12-26T05:01:39.153Z,.32
2022-12-26T05:02:09.609Z,.32
2022-12-26T05:02:35.093Z,.32
2022-12-26T05:02:57.679Z,.32
2022-12-26T05:03:29.766Z,.32
2022-12-26T05:04:01.607Z,.32
2022-12-26T05:04:33.492Z,.32
2022-12-26T05:05:05.994Z,.32
2022-12-26T05:05:34.836Z,.32
2022-12-26T05:05:53.746Z,.32
2022-12-26T05:06:26.133Z,.32
2022-12-26T05:06:44.558Z,.32
2022-12-26T05:07:14.056Z,.32
2022-12-26T05:07:35.866Z,.32
2022-12-26T05:08:02.875Z,.32
2022-12-26T05:08:34.075Z,.32
2022-12-26T05:09:06.146Z,.32
2022-12-26T05:09:38.049Z,.16
2022-12-26T05:10:10.300Z,0
2022-12-26T05:10:35.317Z,0
2022-12-26T05:10:58.266Z,0
2022-12-26T05:11:30.050Z,0
2022-12-26T05:12:02.043Z,0
2022-12-26T05:12:34.375Z,0
2022-12-26T05:13:06.115Z,0
2022-12-26T05:13:35.336Z,0
2022-12-26T05:13:54.052Z,0
2022-12-26T05:14:26.780Z,0
2022-12-26T05:14:53.241Z,0
2022-12-26T05:15:14.580Z,0
2022-12-26T05:15:36.010Z,0
2022-12-26T05:16:03.758Z,0
2022-12-26T05:16:34.103Z,0
2022-12-26T05:17:06.120Z,0
2022-12-26T05:17:36.402Z,0
2022-12-26T05:17:54.024Z,0
2022-12-26T05:18:26.084Z,0
2022-12-26T05:18:43.153Z,0
2022-12-26T05:19:14.090Z,0
2022-12-26T05:19:35.994Z,0
2022-12-26T05:20:04.070Z,0
2022-12-26T05:20:34.511Z,0
2022-12-26T05:21:06.110Z,0
2022-12-26T05:21:35.635Z,0
2022-12-26T05:21:54.039Z,0
2022-12-26T05:22:26.103Z,0
2022-12-26T05:22:43.178Z,0
2022-12-26T05:23:14.037Z,0
2022-12-26T05:23:35.841Z,0
2022-12-26T05:24:04.124Z,0
2022-12-26T05:24:34.647Z,0
2022-12-26T05:25:06.367Z,0
2022-12-26T05:25:35.319Z,.16
2022-12-26T05:25:54.269Z,.32
2022-12-26T05:26:26.081Z,.32
2022-12-26T05:26:43.156Z,.32
2022-12-26T05:27:15.014Z,.48
2022-12-26T05:27:35.868Z,.48
2022-12-26T05:28:02.014Z,.32
2022-12-26T05:28:34.095Z,.32
2022-12-26T05:29:06.092Z,.16
2022-12-26T05:29:35.322Z,.16
2022-12-26T05:29:54.037Z,.32
2022-12-26T05:30:27.419Z,.48
2022-12-26T05:30:43.359Z,.64
2022-12-26T05:31:14.205Z,.48
2022-12-26T05:31:37.065Z,.48
2022-12-26T05:32:02.056Z,.64
2022-12-26T05:32:34.522Z,.64
2022-12-26T05:33:06.097Z,.64
2022-12-26T05:33:38.833Z,.64
2022-12-26T05:34:10.048Z,.64
2022-12-26T05:34:35.277Z,.48
2022-12-26T05:34:57.998Z,.32
2022-12-26T05:35:30.310Z,.32
2022-12-26T05:36:02.032Z,.32
2022-12-26T05:36:34.101Z,.32
2022-12-26T05:37:06.066Z,.32
2022-12-26T05:37:35.316Z,.32
2022-12-26T05:37:54.007Z,.32
2022-12-26T05:38:26.100Z,.32
2022-12-26T05:38:43.182Z,.48
2022-12-26T05:39:14.022Z,.32
2022-12-26T05:39:35.837Z,.32
2022-12-26T05:40:03.728Z,.32
2022-12-26T05:40:34.238Z,.48
2022-12-26T05:41:06.089Z,.32
2022-12-26T05:41:35.307Z,.32
2022-12-26T05:41:54.020Z,.32
2022-12-26T05:42:26.067Z,.32
2022-12-26T05:42:43.123Z,.32
2022-12-26T05:43:15.147Z,.32
2022-12-26T05:43:35.869Z,.32
2022-12-26T05:44:02.034Z,.32
2022-12-26T05:44:34.182Z,.32
2022-12-26T05:45:06.621Z,.32
2022-12-26T05:45:35.304Z,.32
2022-12-26T05:45:54.308Z,.32
2022-12-26T05:46:26.944Z,.32
2022-12-26T05:46:58.095Z,.32
2022-12-26T05:47:30.079Z,.32
2022-12-26T05:48:02.030Z,.32
2022-12-26T05:48:34.112Z,.32
2022-12-26T05:49:06.128Z,.32
2022-12-26T05:49:36.161Z,.32
2022-12-26T05:49:54.005Z,.32
2022-12-26T05:50:26.334Z,.32
2022-12-26T05:50:43.289Z,.48
2022-12-26T05:51:14.087Z,.64
2022-12-26T05:51:35.901Z,.64
2022-12-26T05:52:02.049Z,.48
2022-12-26T05:52:34.157Z,.64
2022-12-26T05:53:06.055Z,.64
2022-12-26T05:53:35.326Z,.64
2022-12-26T05:53:54.036Z,.64
2022-12-26T05:54:26.111Z,.64
2022-12-26T05:54:43.164Z,.64
2022-12-26T05:55:14.284Z,.64
2022-12-26T05:55:35.850Z,.88
2022-12-26T05:56:03.014Z,.88
2022-12-26T05:56:34.161Z,.64
2022-12-26T05:57:06.065Z,.64
2022-12-26T05:57:38.027Z,.64
2022-12-26T05:58:10.061Z,.64
2022-12-26T05:58:35.297Z,.48
2022-12-26T05:58:58.011Z,.48
2022-12-26T05:59:30.005Z,.32
2022-12-26T06:00:04.434Z,.32
2022-12-26T06:00:34.230Z,.32
2022-12-26T06:01:06.126Z,.32
2022-12-26T06:01:38.166Z,.32
2022-12-26T06:02:10.176Z,.32
2022-12-26T06:02:35.478Z,.32
2022-12-26T06:02:58.217Z,.32
2022-12-26T06:03:30.136Z,.32
2022-12-26T06:04:02.148Z,.32
2022-12-26T06:04:34.202Z,.32
2022-12-26T06:05:06.341Z,.32
2022-12-26T06:05:37.198Z,.32
2022-12-26T06:05:54.347Z,.32
2022-12-26T06:06:26.080Z,.32
2022-12-26T06:06:43.141Z,.32
2022-12-26T06:07:14.048Z,.32
2022-12-26T06:07:35.827Z,.32
2022-12-26T06:08:02.023Z,.32
2022-12-26T06:08:34.509Z,.32
2022-12-26T06:09:06.064Z,.16
2022-12-26T06:09:35.624Z,0
2022-12-26T06:09:54.017Z,0
2022-12-26T06:10:27.317Z,0
2022-12-26T06:10:43.167Z,0
2022-12-26T06:11:14.019Z,0
2022-12-26T06:11:36.017Z,0
2022-12-26T06:12:02.838Z,0
2022-12-26T06:12:34.197Z,0
2022-12-26T06:13:06.111Z,0
2022-12-26T06:13:38.030Z,0
2022-12-26T06:14:10.018Z,0
2022-12-26T06:14:51.016Z,0
2022-12-26T06:15:15.285Z,0
2022-12-26T06:15:35.832Z,0
2022-12-26T06:16:03.693Z,0
2022-12-26T06:16:34.605Z,0
2022-12-26T06:17:06.080Z,0
2022-12-26T06:17:35.299Z,0
2022-12-26T06:17:54.048Z,0
2022-12-26T06:18:27.733Z,0
2022-12-26T06:18:58.027Z,0
2022-12-26T06:19:30.037Z,0
2022-12-26T06:20:03.838Z,0
2022-12-26T06:20:34.313Z,0
2022-12-26T06:21:06.091Z,0
2022-12-26T06:21:35.277Z,0
2022-12-26T06:21:54.008Z,0
2022-12-26T06:22:26.072Z,0
2022-12-26T06:22:43.134Z,0
2022-12-26T06:23:14.901Z,0
2022-12-26T06:23:36.010Z,0
2022-12-26T06:24:02.038Z,0
2022-12-26T06:24:34.224Z,0
2022-12-26T06:25:06.335Z,.16
2022-12-26T06:25:35.717Z,.32
2022-12-26T06:25:54.272Z,.32
2022-12-26T06:26:26.718Z,.32
2022-12-26T06:26:43.222Z,.32
2022-12-26T06:27:14.008Z,.32
2022-12-26T06:27:35.844Z,.32
2022-12-26T06:28:02.061Z,.32
2022-12-26T06:28:34.233Z,.32